createdAt,value
2019-01-04T00:01:29.022Z,36.97
2019-01-04T00:04:33.756Z,30.57
2019-01-04T00:07:38.190Z,30.40
2019-01-04T00:10:42.633Z,30.40
2019-01-04T00:13:47.326Z,33.93
2019-01-04T00:16:51.762Z,29.83
2019-01-04T00:19:56.207Z,30.83
2019-01-04T00:23:00.640Z,31.60
2019-01-04T00:26:05.150Z,30.33
2019-01-04T00:29:09.859Z,31.87
2019-01-04T00:32:14.297Z,28.77
2019-01-04T00:35:19.017Z,35.90
2019-01-04T00:38:23.856Z,33.23
2019-01-04T00:41:28.295Z,35.40
2019-01-04T00:44:32.998Z,31.13
2019-01-04T00:47:37.430Z,37.90
2019-01-04T00:50:42.257Z,33.03
2019-01-04T00:53:46.700Z,41.07
2019-01-04T00:57:10.778Z,37.60
2019-01-04T01:00:44.164Z,34.60
2019-01-04T01:04:32.265Z,39.20
2019-01-04T01:08:31.935Z,36.23
2019-01-04T01:12:07.001Z,38.67
2019-01-04T01:15:48.160Z,40.50
2019-01-04T01:19:36.450Z,43.03
2019-01-04T01:23:06.845Z,35.93
2019-01-04T01:26:33.080Z,35.80
2019-01-04T01:30:21.150Z,44.13
2019-01-04T01:33:54.019Z,36.53
2019-01-04T01:37:36.419Z,37.73
2019-01-04T01:41:31.510Z,33.87
2019-01-04T01:44:52.421Z,36.83
2019-01-04T01:47:57.092Z,38.47
2019-01-04T01:51:17.903Z,37.77
2019-01-04T01:54:22.340Z,36.90
2019-01-04T01:57:27.059Z,37.83
2019-01-04T02:00:31.504Z,38.87
2019-01-04T02:03:36.197Z,36.97
2019-01-04T02:06:40.929Z,37.50
2019-01-04T02:09:45.363Z,35.93
2019-01-04T02:12:49.814Z,31.20
2019-01-04T02:15:54.522Z,33.37
2019-01-04T02:18:58.959Z,37.27
2019-01-04T02:22:03.403Z,42.87
2019-01-04T02:25:07.931Z,35.10
2019-01-04T02:28:12.365Z,31.40
2019-01-04T02:31:16.817Z,30.43
2019-01-04T02:34:21.258Z,34.87
2019-01-04T02:37:25.699Z,31.00
2019-01-04T02:40:30.143Z,32.00
2019-01-04T02:43:34.829Z,34.23
2019-01-04T02:46:39.275Z,29.20
2019-01-04T02:49:43.720Z,28.63
2019-01-04T02:52:48.162Z,28.33
2019-01-04T02:55:52.626Z,36.50
2019-01-04T02:58:57.062Z,26.13
2019-01-04T03:02:01.813Z,29.60
2019-01-04T03:05:06.874Z,30.43
2019-01-04T03:08:11.552Z,33.07
2019-01-04T03:11:15.998Z,33.93
2019-01-04T03:14:20.436Z,33.87
2019-01-04T03:17:24.879Z,31.67
2019-01-04T03:20:29.332Z,30.13
2019-01-04T03:23:33.771Z,32.10
2019-01-04T03:26:38.509Z,39.73
2019-01-04T03:29:42.936Z,37.00
2019-01-04T03:32:47.385Z,33.73
2019-01-04T03:35:52.109Z,40.03
2019-01-04T03:38:56.525Z,32.63
2019-01-04T03:42:01.245Z,35.90
2019-01-04T03:45:07.120Z,36.90
2019-01-04T03:48:11.817Z,32.50
2019-01-04T03:51:16.255Z,35.27
2019-01-04T03:54:20.698Z,32.80
2019-01-04T03:57:25.397Z,30.13
2019-01-04T04:00:29.844Z,32.73
2019-01-04T04:03:34.282Z,33.30
2019-01-04T04:06:38.719Z,36.67
2019-01-04T04:09:43.164Z,32.47
2019-01-04T04:12:47.606Z,39.53
2019-01-04T04:15:52.044Z,35.57
2019-01-04T04:18:56.499Z,33.70
2019-01-04T04:22:00.930Z,35.10
2019-01-04T04:25:05.719Z,30.80
2019-01-04T04:28:10.165Z,38.20
2019-01-04T04:31:14.604Z,35.20
2019-01-04T04:34:19.057Z,39.17
2019-01-04T04:37:23.823Z,35.03
2019-01-04T04:40:28.265Z,35.30
2019-01-04T04:43:32.708Z,33.60
2019-01-04T04:46:37.150Z,30.63
2019-01-04T04:49:41.597Z,34.47
2019-01-04T04:52:46.050Z,36.93
2019-01-04T04:55:50.788Z,47.37
2019-01-04T04:58:55.224Z,35.30
2019-01-04T05:01:59.930Z,34.47
2019-01-04T05:05:04.377Z,34.83
2019-01-04T05:08:08.834Z,39.17
2019-01-04T05:11:13.260Z,36.10
2019-01-04T05:14:17.701Z,38.20
2019-01-04T05:17:22.456Z,35.30
2019-01-04T05:20:27.199Z,36.73
2019-01-04T05:23:31.680Z,33.80
2019-01-04T05:26:36.445Z,40.40
2019-01-04T05:29:41.182Z,37.87
2019-01-04T05:32:45.615Z,36.63
2019-01-04T05:35:50.054Z,37.73
2019-01-04T05:38:54.755Z,36.80
2019-01-04T05:41:59.195Z,44.83
2019-01-04T05:45:04.108Z,37.77
2019-01-04T05:48:08.546Z,32.17
2019-01-04T05:51:13.262Z,34.73
2019-01-04T05:54:17.703Z,36.57
2019-01-04T05:57:22.134Z,34.13
2019-01-04T06:00:26.588Z,33.67
2019-01-04T06:03:31.023Z,32.00
2019-01-04T06:06:35.462Z,31.37
2019-01-04T06:09:39.915Z,34.60
2019-01-04T06:12:44.344Z,36.30
2019-01-04T06:15:49.167Z,34.90
2019-01-04T06:18:53.602Z,34.77
2019-01-04T06:21:58.050Z,32.83
2019-01-04T06:25:02.497Z,35.17
2019-01-04T06:28:07.269Z,33.17
2019-01-04T06:31:11.720Z,31.50
2019-01-04T06:34:16.425Z,34.17
2019-01-04T06:37:20.865Z,34.27
2019-01-04T06:40:25.579Z,36.57
2019-01-04T06:43:30.335Z,32.17
2019-01-04T06:46:34.796Z,36.07
2019-01-04T06:49:39.206Z,40.57
2019-01-04T06:52:43.894Z,39.07
2019-01-04T06:55:52.836Z,29.93
2019-01-04T06:58:57.241Z,32.27
2019-01-04T07:02:01.984Z,35.20
2019-01-04T07:05:07.840Z,34.57
2019-01-04T07:08:12.555Z,37.03
2019-01-04T07:11:17.008Z,33.53
2019-01-04T07:14:21.454Z,35.33
2019-01-04T07:17:25.902Z,35.37
2019-01-04T07:20:30.346Z,37.33
2019-01-04T07:23:34.780Z,33.83
2019-01-04T07:26:39.614Z,31.00
2019-01-04T07:29:44.049Z,30.10
2019-01-04T07:32:48.495Z,30.53
2019-01-04T07:35:53.186Z,29.60
2019-01-04T07:38:57.620Z,34.17
2019-01-04T07:42:02.075Z,39.37
2019-01-04T07:45:09.417Z,40.33
2019-01-04T07:48:13.871Z,39.40
2019-01-04T07:51:18.581Z,34.53
2019-01-04T07:54:23.026Z,42.27
2019-01-04T07:57:27.738Z,36.63
2019-01-04T08:00:32.179Z,35.90
2019-01-04T08:03:36.640Z,38.23
2019-01-04T08:06:41.424Z,37.43
2019-01-04T08:09:45.863Z,36.00
2019-01-04T08:12:50.301Z,36.57
2019-01-04T08:15:55.000Z,35.87
2019-01-04T08:18:59.446Z,36.77
2019-01-04T08:22:03.895Z,41.87
2019-01-04T08:25:09.272Z,38.90
2019-01-04T08:28:13.719Z,38.00
2019-01-04T08:31:18.158Z,41.87
2019-01-04T08:34:22.602Z,47.23
2019-01-04T08:37:27.392Z,52.10
2019-01-04T08:40:32.123Z,35.77
2019-01-04T08:43:36.955Z,31.80
2019-01-04T08:46:41.896Z,33.47
2019-01-04T08:49:46.626Z,31.40
2019-01-04T08:52:51.069Z,37.17
2019-01-04T08:55:55.505Z,34.17
2019-01-04T08:58:59.948Z,38.67
2019-01-04T09:02:04.728Z,32.83
2019-01-04T09:05:09.163Z,36.37
2019-01-04T09:08:13.986Z,32.43
2019-01-04T09:11:18.421Z,32.83
2019-01-04T09:14:23.145Z,30.63
2019-01-04T09:17:28.080Z,36.07
2019-01-04T09:20:32.906Z,32.00
2019-01-04T09:23:37.645Z,28.60
2019-01-04T09:26:42.078Z,30.67
2019-01-04T09:29:46.523Z,27.10
2019-01-04T09:32:50.970Z,29.67
2019-01-04T09:35:55.404Z,29.27
2019-01-04T09:39:03.275Z,26.23
2019-01-04T09:42:06.639Z,27.90
2019-01-04T09:45:11.157Z,29.37
2019-01-04T09:48:15.891Z,29.63
2019-01-04T09:51:20.628Z,31.50
2019-01-04T09:54:25.356Z,27.73
2019-01-04T09:57:30.105Z,29.93
2019-01-04T10:00:34.818Z,27.23
2019-01-04T10:03:39.272Z,27.40
2019-01-04T10:06:43.704Z,34.17
2019-01-04T10:09:48.151Z,29.83
2019-01-04T10:12:52.609Z,24.97
2019-01-04T10:15:57.038Z,24.70
2019-01-04T10:19:01.767Z,29.90
2019-01-04T10:22:06.203Z,21.23
2019-01-04T10:25:11.531Z,27.07
2019-01-04T10:28:15.979Z,26.53
2019-01-04T10:31:20.410Z,21.40
2019-01-04T10:34:24.853Z,24.57
2019-01-04T10:37:29.538Z,19.47
2019-01-04T10:40:33.980Z,23.23
2019-01-04T10:43:38.686Z,27.17
2019-01-04T10:46:43.125Z,20.53
2019-01-04T10:49:47.560Z,23.07
2019-01-04T10:52:52.272Z,23.23
2019-01-04T10:55:57.002Z,27.37
2019-01-04T10:59:01.450Z,22.03
2019-01-04T11:02:05.874Z,26.10
2019-01-04T11:05:10.329Z,27.90
2019-01-04T11:08:15.108Z,29.47
2019-01-04T11:11:19.831Z,28.70
2019-01-04T11:14:24.283Z,28.73
2019-01-04T11:17:28.719Z,26.77
2019-01-04T11:20:39.683Z,28.93
2019-01-04T11:24:12.551Z,31.10
2019-01-04T11:27:17.380Z,24.00
2019-01-04T11:30:26.830Z,27.40
2019-01-04T11:33:32.820Z,27.80
2019-01-04T11:36:56.100Z,26.60
2019-01-04T11:40:35.190Z,29.23
2019-01-04T11:43:47.200Z,23.47
2019-01-04T11:47:32.881Z,22.10
2019-01-04T11:50:56.931Z,25.00
2019-01-04T11:54:02.101Z,24.07
2019-01-04T11:57:06.543Z,25.23
2019-01-04T12:00:12.329Z,22.33
2019-01-04T12:03:16.765Z,24.27
2019-01-04T12:06:21.542Z,21.70
2019-01-04T12:09:25.978Z,24.80
2019-01-04T12:12:30.419Z,22.73
2019-01-04T12:15:34.868Z,28.63
2019-01-04T12:18:39.300Z,21.97
2019-01-04T12:21:44.063Z,27.27
2019-01-04T12:24:48.502Z,22.90
2019-01-04T12:27:52.942Z,21.40
2019-01-04T12:30:57.395Z,21.77
2019-01-04T12:34:01.836Z,25.10
2019-01-04T12:37:06.277Z,26.03
2019-01-04T12:40:11.015Z,18.77
2019-01-04T12:43:15.460Z,18.80
2019-01-04T12:46:19.972Z,23.83
2019-01-04T12:49:24.404Z,23.60
2019-01-04T12:52:29.122Z,24.13
2019-01-04T12:55:33.557Z,23.50
2019-01-04T12:58:38.007Z,20.23
2019-01-04T13:01:42.449Z,23.13
2019-01-04T13:04:46.885Z,24.90
2019-01-04T13:07:51.323Z,20.63
2019-01-04T13:10:55.757Z,22.37
2019-01-04T13:14:00.279Z,25.83
2019-01-04T13:17:04.722Z,19.30
2019-01-04T13:20:09.445Z,18.33
2019-01-04T13:23:13.884Z,16.83
2019-01-04T13:26:18.601Z,20.30
2019-01-04T13:29:23.330Z,21.53
2019-01-04T13:32:28.059Z,24.83
2019-01-04T13:35:32.503Z,21.83
2019-01-04T13:38:36.948Z,18.23
2019-01-04T13:41:41.390Z,18.10
2019-01-04T13:44:45.823Z,18.90
2019-01-04T13:47:50.582Z,15.50
2019-01-04T13:50:55.318Z,22.03
2019-01-04T13:53:59.759Z,20.37
2019-01-04T13:57:05.298Z,20.43
2019-01-04T14:00:11.047Z,20.40
2019-01-04T14:03:15.482Z,24.17
2019-01-04T14:06:19.909Z,22.87
2019-01-04T14:09:24.349Z,18.93
2019-01-04T14:12:28.856Z,16.87
2019-01-04T14:15:33.290Z,20.20
2019-01-04T14:18:37.996Z,17.23
2019-01-04T14:21:42.424Z,14.90
2019-01-04T14:24:46.861Z,14.23
2019-01-04T14:27:51.569Z,15.83
2019-01-04T14:30:56.565Z,15.97
2019-01-04T14:34:01.443Z,17.07
2019-01-04T14:37:06.175Z,16.93
2019-01-04T14:40:11.851Z,17.47
2019-01-04T14:43:16.562Z,21.93
2019-01-04T14:46:20.992Z,18.30
2019-01-04T14:49:26.711Z,18.67
2019-01-04T14:52:31.138Z,23.17
2019-01-04T14:55:35.578Z,19.97
2019-01-04T14:58:40.309Z,16.27
2019-01-04T15:01:44.749Z,17.63
2019-01-04T15:04:49.519Z,19.13
2019-01-04T15:07:53.895Z,18.93
2019-01-04T15:10:58.341Z,18.17
2019-01-04T15:14:02.776Z,17.73
2019-01-04T15:17:07.468Z,21.03
2019-01-04T15:20:12.198Z,16.80
2019-01-04T15:23:16.627Z,18.63
2019-01-04T15:26:21.355Z,18.57
2019-01-04T15:29:26.088Z,18.67
2019-01-04T15:32:30.821Z,18.83
2019-01-04T15:35:35.258Z,18.23
2019-01-04T15:38:39.686Z,18.97
2019-01-04T15:41:44.131Z,17.03
2019-01-04T15:44:48.570Z,16.83
2019-01-04T15:47:53.005Z,16.67
2019-01-04T15:50:57.771Z,21.53
2019-01-04T15:54:02.496Z,42.00
2019-01-04T15:57:07.119Z,41.13
2019-01-04T16:00:12.991Z,24.03
2019-01-04T16:03:17.420Z,16.23
2019-01-04T16:06:21.859Z,17.33
2019-01-04T16:09:26.560Z,18.00
2019-01-04T16:12:31.293Z,17.23
2019-01-04T16:15:36.022Z,21.50
2019-01-04T16:18:40.754Z,21.63
2019-01-04T16:21:45.247Z,16.80
2019-01-04T16:24:49.688Z,15.00
2019-01-04T16:27:54.436Z,20.23
2019-01-04T16:30:58.873Z,18.67
2019-01-04T16:34:03.586Z,18.73
2019-01-04T16:37:08.024Z,16.57
2019-01-04T16:40:12.535Z,18.33
2019-01-04T16:43:16.969Z,18.07
2019-01-04T16:46:21.787Z,17.23
2019-01-04T16:49:27.989Z,18.93
2019-01-04T16:52:32.430Z,19.43
2019-01-04T16:55:36.866Z,18.87
2019-01-04T16:58:41.639Z,19.33
2019-01-04T17:01:46.083Z,17.63
2019-01-04T17:04:50.516Z,21.53
2019-01-04T17:07:55.215Z,19.93
2019-01-04T17:10:59.948Z,17.93
2019-01-04T17:14:04.384Z,16.23
2019-01-04T17:17:08.830Z,18.30
2019-01-04T17:20:13.625Z,17.13
2019-01-04T17:23:18.062Z,18.57
2019-01-04T17:26:22.785Z,14.63
2019-01-04T17:29:27.224Z,15.80
2019-01-04T17:32:31.934Z,16.20
2019-01-04T17:35:36.874Z,18.43
2019-01-04T17:38:41.319Z,17.13
2019-01-04T17:41:45.763Z,16.37
2019-01-04T17:44:50.196Z,17.97
2019-01-04T17:47:54.649Z,19.23
2019-01-04T17:50:59.124Z,19.10
2019-01-04T17:54:03.521Z,15.70
2019-01-04T17:57:07.960Z,15.17
2019-01-04T18:00:12.962Z,20.90
2019-01-04T18:03:17.409Z,17.60
2019-01-04T18:06:21.860Z,17.87
2019-01-04T18:09:26.292Z,16.00
2019-01-04T18:12:30.735Z,18.03
2019-01-04T18:15:35.181Z,20.23
2019-01-04T18:18:39.616Z,16.63
2019-01-04T18:21:44.053Z,20.10
2019-01-04T18:24:48.774Z,17.87
2019-01-04T18:27:53.221Z,16.83
2019-01-04T18:30:57.646Z,17.70
2019-01-04T18:34:02.147Z,16.83
2019-01-04T18:37:06.587Z,19.30
2019-01-04T18:40:11.457Z,20.07
2019-01-04T18:43:16.238Z,21.43
2019-01-04T18:46:20.684Z,16.20
2019-01-04T18:49:25.161Z,14.97
2019-01-04T18:52:29.583Z,15.73
2019-01-04T18:55:34.020Z,17.87
2019-01-04T18:58:38.771Z,20.00
2019-01-04T19:01:43.203Z,16.40
2019-01-04T19:04:47.635Z,23.53
2019-01-04T19:07:52.343Z,18.57
2019-01-04T19:10:57.082Z,19.07
2019-01-04T19:14:01.808Z,17.60
2019-01-04T19:17:06.247Z,15.50
2019-01-04T19:20:10.963Z,15.90
2019-01-04T19:23:15.695Z,18.50
2019-01-04T19:26:20.147Z,15.53
2019-01-04T19:29:24.843Z,19.73
2019-01-04T19:32:29.578Z,19.80
2019-01-04T19:35:34.010Z,23.30
2019-01-04T19:38:38.453Z,21.73
2019-01-04T19:41:42.889Z,20.73
2019-01-04T19:44:47.326Z,24.47
2019-01-04T19:47:52.105Z,20.37
2019-01-04T19:50:56.846Z,18.93
2019-01-04T19:54:01.565Z,17.53
2019-01-04T19:57:06.292Z,24.90
2019-01-04T20:00:11.218Z,20.40
2019-01-04T20:03:15.976Z,21.40
2019-01-04T20:06:48.218Z,18.53
2019-01-04T20:10:19.965Z,19.30
2019-01-04T20:14:01.549Z,22.83
2019-01-04T20:17:07.619Z,21.43
2019-01-04T20:20:24.705Z,17.67
2019-01-04T20:23:43.131Z,22.90
2019-01-04T20:26:49.208Z,18.73
2019-01-04T20:30:11.549Z,19.13
2019-01-04T20:33:20.887Z,22.33
2019-01-04T20:36:29.621Z,18.80
2019-01-04T20:39:41.737Z,17.97
2019-01-04T20:42:57.091Z,21.80
2019-01-04T20:46:09.296Z,17.47
2019-01-04T20:49:31.385Z,19.60
2019-01-04T20:52:35.586Z,25.30
2019-01-04T20:55:57.736Z,21.60
2019-01-04T20:59:07.022Z,22.80
2019-01-04T21:02:29.107Z,24.90
2019-01-04T21:05:45.063Z,20.57
2019-01-04T21:09:06.178Z,22.53
2019-01-04T21:12:21.451Z,21.43
2019-01-04T21:15:28.107Z,22.97
2019-01-04T21:18:50.569Z,23.83
2019-01-04T21:22:03.565Z,24.40
2019-01-04T21:25:13.446Z,23.10
2019-01-04T21:28:20.633Z,23.60
2019-01-04T21:34:49.977Z,22.33
2019-01-04T21:38:04.932Z,21.63
2019-01-04T21:41:17.928Z,18.43
2019-01-04T21:44:24.005Z,21.93
2019-01-04T21:47:45.336Z,24.97
2019-01-04T21:51:07.493Z,20.20
2019-01-04T21:54:16.265Z,24.07
2019-01-04T21:57:38.956Z,20.53
2019-01-04T22:00:45.035Z,22.37
2019-01-04T22:03:51.106Z,21.83
2019-01-04T22:07:04.433Z,22.53
2019-01-04T22:10:13.409Z,23.57
2019-01-04T22:13:25.746Z,22.40
2019-01-04T22:16:43.816Z,20.03
2019-01-04T22:19:50.162Z,23.77
2019-01-04T22:22:56.531Z,20.97
2019-01-04T22:26:18.899Z,18.60
2019-01-04T22:29:33.811Z,19.93
2019-01-04T22:32:39.892Z,23.00
2019-01-04T22:35:48.955Z,19.80
2019-01-04T22:38:57.756Z,19.73
2019-01-04T22:42:20.619Z,19.33
2019-01-04T22:45:44.974Z,19.43
2019-01-04T22:49:06.326Z,20.23
2019-01-04T22:52:28.718Z,20.97
2019-01-04T22:55:40.686Z,21.07
2019-01-04T22:58:45.214Z,19.50
2019-01-04T23:01:53.944Z,19.37
2019-01-04T23:05:14.947Z,21.83
2019-01-04T23:08:26.749Z,20.13
2019-01-04T23:11:32.827Z,19.77
2019-01-04T23:14:47.970Z,22.70
2019-01-04T23:17:56.743Z,21.73
2019-01-04T23:21:46.900Z,17.57
2019-01-04T23:24:53.790Z,19.57
2019-01-04T23:28:17.617Z,19.83
2019-01-04T23:31:29.604Z,18.80
2019-01-04T23:34:44.779Z,20.87
2019-01-04T23:37:59.909Z,17.67
2019-01-04T23:41:17.917Z,17.37
2019-01-04T23:44:24.319Z,17.90
2019-01-04T23:47:33.452Z,18.07
2019-01-04T23:50:39.659Z,18.70
2019-01-04T23:53:57.952Z,17.87
2019-01-04T23:57:20.337Z,16.37
